Time;durP1;ratioP1;P1;durP2;ratioP2;P2;SDS_P1;SDS_P2;PMS_P1;PMS_P2;Temp;Humidity;BMP_temperature;BMP_pressure;BME280_temperature;BME280_humidity;BME280_pressure;Samples;Min_cycle;Max_cycle;Signal;HPM_P1;HPM_P2
2024/04/14 00:01:46;;;;;;;11.20;10.90;;;;;;;;;;5477334;25;20532;-69
2024/04/14 00:04:18;;;;;;;11.07;10.83;;;;;;;;;;5468955;26;20484;-69
2024/04/14 00:06:44;;;;;;;11.67;11.37;;;;;;;;;;5470710;26;20517;-69
2024/04/14 00:09:13;;;;;;;11.60;11.30;;;;;;;;;;5464382;26;20608;-69
2024/04/14 00:11:39;;;;;;;11.17;10.87;;;;;;;;;;5466386;26;20457;-70
2024/04/14 00:14:08;;;;;;;11.30;11.00;;;;;;;;;;5466783;25;20963;-69
2024/04/14 00:16:35;;;;;;;11.03;10.83;;;;;;;;;;5466084;25;20629;-69
2024/04/14 00:19:04;;;;;;;10.63;10.43;;;;;;;;;;5463600;26;22336;-69
2024/04/14 00:21:32;;;;;;;11.90;11.60;;;;;;;;;;5465415;26;22289;-70
2024/04/14 00:24:01;;;;;;;11.77;11.47;;;;;;;;;;5466684;25;20482;-70
2024/04/14 00:26:28;;;;;;;11.60;11.30;;;;;;;;;;5466706;26;21073;-69
2024/04/14 00:28:56;;;;;;;12.10;11.80;;;;;;;;;;5468006;25;20512;-69
2024/04/14 00:31:22;;;;;;;11.27;10.97;;;;;;;;;;5467728;25;21142;-70
2024/04/14 00:33:53;;;;;;;11.50;11.20;;;;;;;;;;5462787;26;20521;-69
2024/04/14 00:36:20;;;;;;;11.87;11.57;;;;;;;;;;5466805;25;20490;-69
2024/04/14 00:38:52;;;;;;;10.83;10.63;;;;;;;;;;5466968;26;21139;-69
2024/04/14 00:41:18;;;;;;;12.20;11.90;;;;;;;;;;5464049;25;20610;-68
2024/04/14 00:43:47;;;;;;;11.60;11.30;;;;;;;;;;5463024;26;20572;-70
2024/04/14 00:46:13;;;;;;;11.00;10.80;;;;;;;;;;5469420;26;20480;-69
2024/04/14 00:48:43;;;;;;;12.37;12.07;;;;;;;;;;5467131;26;20995;-69
2024/04/14 00:51:09;;;;;;;12.07;11.77;;;;;;;;;;5467866;26;21091;-69
2024/04/14 00:53:38;;;;;;;11.77;11.47;;;;;;;;;;5467579;26;20479;-69
2024/04/14 00:56:08;;;;;;;12.83;12.50;;;;;;;;;;5469530;25;20550;-69
2024/04/14 00:58:37;;;;;;;13.10;12.70;;;;;;;;;;5468354;25;21033;-70
2024/04/14 01:01:03;;;;;;;11.90;11.60;;;;;;;;;;5487185;25;20543;-69
2024/04/14 01:03:33;;;;;;;12.63;12.33;;;;;;;;;;5520007;26;20467;-69
2024/04/14 01:06:00;;;;;;;12.40;12.10;;;;;;;;;;5504932;25;20598;-69
2024/04/14 01:08:29;;;;;;;13.60;13.20;;;;;;;;;;5511881;26;21103;-68
2024/04/14 01:10:56;;;;;;;13.13;12.73;;;;;;;;;;5499611;26;20848;-69
2024/04/14 01:13:28;;;;;;;13.20;12.80;;;;;;;;;;5518329;26;20532;-69
2024/04/14 01:15:54;;;;;;;13.77;13.37;;;;;;;;;;5509709;25;20481;-68
2024/04/14 01:18:23;;;;;;;13.53;13.13;;;;;;;;;;5501344;26;20524;-68
2024/04/14 01:20:50;;;;;;;13.70;13.30;;;;;;;;;;5517696;26;20473;-69
2024/04/14 01:23:19;;;;;;;13.23;12.83;;;;;;;;;;5511273;25;20479;-68
2024/04/14 01:25:48;;;;;;;13.80;13.40;;;;;;;;;;5512176;26;20520;-69
2024/04/14 01:28:17;;;;;;;13.20;12.80;;;;;;;;;;5496201;26;20481;-69
2024/04/14 01:30:44;;;;;;;13.27;12.87;;;;;;;;;;5507080;26;20598;-69
2024/04/14 01:33:12;;;;;;;13.90;13.50;;;;;;;;;;5517688;26;20475;-69
2024/04/14 01:35:39;;;;;;;13.77;13.37;;;;;;;;;;5504631;26;20951;-69
2024/04/14 01:38:08;;;;;;;13.33;12.93;;;;;;;;;;5500932;26;20519;-69
2024/04/14 01:40:34;;;;;;;13.67;13.27;;;;;;;;;;5510134;25;20476;-69
2024/04/14 01:43:06;;;;;;;13.70;13.30;;;;;;;;;;5506180;26;20533;-69
2024/04/14 01:45:33;;;;;;;13.57;13.17;;;;;;;;;;5508193;26;20480;-69
2024/04/14 01:48:02;;;;;;;13.67;13.27;;;;;;;;;;5519107;26;20527;-70
2024/04/14 01:50:28;;;;;;;13.70;13.30;;;;;;;;;;5516722;25;20472;-70
2024/04/14 01:52:58;;;;;;;13.50;13.10;;;;;;;;;;5510688;26;21035;-69
2024/04/14 01:55:24;;;;;;;12.73;12.43;;;;;;;;;;5514683;26;20467;-69
2024/04/14 01:57:53;;;;;;;13.20;12.80;;;;;;;;;;5516032;25;20664;-70
2024/04/14 02:00:22;;;;;;;13.07;12.67;;;;;;;;;;5519223;26;21122;-69
2024/04/14 02:02:54;;;;;;;13.17;12.77;;;;;;;;;;5506060;26;21046;-70
2024/04/14 02:05:20;;;;;;;13.00;12.67;;;;;;;;;;5509669;25;20484;-70
2024/04/14 02:07:49;;;;;;;13.20;12.80;;;;;;;;;;5510661;25;20507;-69
2024/04/14 02:10:16;;;;;;;12.60;12.30;;;;;;;;;;5506720;25;20935;-70
2024/04/14 02:12:46;;;;;;;12.50;12.20;;;;;;;;;;5506609;25;20460;-70
2024/04/14 02:15:12;;;;;;;13.57;13.17;;;;;;;;;;5511575;25;20471;-70
2024/04/14 02:17:44;;;;;;;12.97;12.60;;;;;;;;;;5508434;25;20528;-70
2024/04/14 02:20:10;;;;;;;12.20;11.90;;;;;;;;;;5513016;26;20524;-70
2024/04/14 02:22:39;;;;;;;12.73;12.43;;;;;;;;;;5486738;25;20477;-70
2024/04/14 02:25:06;;;;;;;12.10;11.80;;;;;;;;;;5476013;26;20465;-70
2024/04/14 02:27:36;;;;;;;12.50;12.20;;;;;;;;;;5483028;26;20473;-70
2024/04/14 02:30:05;;;;;;;13.37;12.97;;;;;;;;;;5468721;26;20459;-70
2024/04/14 02:32:34;;;;;;;12.80;12.50;;;;;;;;;;5467020;26;20527;-70
2024/04/14 02:35:03;;;;;;;12.87;12.57;;;;;;;;;;5469672;26;20489;-70
2024/04/14 02:37:32;;;;;;;12.63;12.33;;;;;;;;;;5483445;26;20508;-70
2024/04/14 02:39:58;;;;;;;12.73;12.43;;;;;;;;;;5482907;26;20725;-70
2024/04/14 02:42:28;;;;;;;12.37;12.07;;;;;;;;;;5470518;26;20793;-70
2024/04/14 02:44:54;;;;;;;12.20;11.90;;;;;;;;;;5470770;26;21096;-70
2024/04/14 02:47:24;;;;;;;11.90;11.60;;;;;;;;;;5492063;26;20896;-70
2024/04/14 02:49:50;;;;;;;11.73;11.43;;;;;;;;;;5464324;26;20543;-70
2024/04/14 02:52:22;;;;;;;12.10;11.80;;;;;;;;;;5479553;26;20914;-70
2024/04/14 02:54:50;;;;;;;11.87;11.57;;;;;;;;;;5483638;26;20529;-70
2024/04/14 02:57:19;;;;;;;11.80;11.50;;;;;;;;;;5482596;26;20453;-70
2024/04/14 02:59:45;;;;;;;11.60;11.30;;;;;;;;;;5471464;26;20476;-70
2024/04/14 03:02:14;;;;;;;11.60;11.30;;;;;;;;;;5462847;26;20876;-70
2024/04/14 03:04:41;;;;;;;11.70;11.40;;;;;;;;;;5484161;26;20502;-70
2024/04/14 03:07:10;;;;;;;12.00;11.70;;;;;;;;;;5456035;26;20459;-70
2024/04/14 03:09:39;;;;;;;11.80;11.50;;;;;;;;;;5472485;26;20470;-70
2024/04/14 03:12:09;;;;;;;11.23;10.97;;;;;;;;;;5471480;26;20595;-70
2024/04/14 03:14:36;;;;;;;11.43;11.13;;;;;;;;;;5465288;26;20523;-69
2024/04/14 03:17:04;;;;;;;11.20;10.90;;;;;;;;;;5463824;26;21089;-70
2024/04/14 03:19:31;;;;;;;11.97;11.67;;;;;;;;;;5474182;26;20912;-70
2024/04/14 03:22:00;;;;;;;12.40;12.10;;;;;;;;;;5484573;26;20859;-69
2024/04/14 03:24:27;;;;;;;12.00;11.70;;;;;;;;;;5495051;26;20463;-71
2024/04/14 03:26:58;;;;;;;11.73;11.43;;;;;;;;;;5508412;25;20915;-70
2024/04/14 03:29:24;;;;;;;11.50;11.20;;;;;;;;;;5516508;25;20477;-70
2024/04/14 03:31:53;;;;;;;11.50;11.20;;;;;;;;;;5492794;26;20875;-70
2024/04/14 03:34:20;;;;;;;11.70;11.40;;;;;;;;;;5502137;26;20486;-70
2024/04/14 03:36:49;;;;;;;11.67;11.37;;;;;;;;;;5504210;26;20481;-69
2024/04/14 03:39:18;;;;;;;11.67;11.37;;;;;;;;;;5507871;26;20472;-70
2024/04/14 03:41:47;;;;;;;11.27;10.97;;;;;;;;;;5506068;25;20609;-70
2024/04/14 03:44:18;;;;;;;12.00;11.70;;;;;;;;;;5512314;26;20480;-70
2024/04/14 03:46:48;;;;;;;12.30;12.00;;;;;;;;;;5502381;26;20472;-70
2024/04/14 03:49:17;;;;;;;11.63;11.33;;;;;;;;;;5490721;26;21086;-70
2024/04/14 03:51:44;;;;;;;11.57;11.27;;;;;;;;;;5509986;26;20518;-69
2024/04/14 03:54:14;;;;;;;11.70;11.40;;;;;;;;;;5510070;26;20483;-70
2024/04/14 03:56:40;;;;;;;11.90;11.60;;;;;;;;;;5518025;25;20457;-70
2024/04/14 03:59:10;;;;;;;11.90;11.60;;;;;;;;;;5513265;25;20585;-70
2024/04/14 04:01:40;;;;;;;11.77;11.47;;;;;;;;;;5506833;26;21258;-70
2024/04/14 04:04:10;;;;;;;11.70;11.40;;;;;;;;;;5508885;25;20534;-70
2024/04/14 04:06:36;;;;;;;11.83;11.53;;;;;;;;;;5507283;26;20482;-69
2024/04/14 04:09:06;;;;;;;11.07;10.83;;;;;;;;;;5507495;25;20548;-69
2024/04/14 04:11:35;;;;;;;11.17;10.90;;;;;;;;;;5510891;26;20516;-70
2024/04/14 04:14:02;;;;;;;11.40;11.10;;;;;;;;;;5519427;26;20524;-69
2024/04/14 04:16:31;;;;;;;11.63;11.33;;;;;;;;;;5502446;25;20466;-70
2024/04/14 04:18:59;;;;;;;11.90;11.60;;;;;;;;;;5512715;25;20526;-70
2024/04/14 04:21:29;;;;;;;11.30;11.00;;;;;;;;;;5506617;26;20998;-69
2024/04/14 04:23:55;;;;;;;10.87;10.67;;;;;;;;;;5514171;26;20466;-70
2024/04/14 04:26:24;;;;;;;11.27;10.97;;;;;;;;;;5504822;25;20479;-70
2024/04/14 04:28:50;;;;;;;11.03;10.80;;;;;;;;;;5507089;26;20992;-70
2024/04/14 04:31:19;;;;;;;11.07;10.80;;;;;;;;;;5511917;26;20833;-70
2024/04/14 04:33:46;;;;;;;11.57;11.27;;;;;;;;;;5509079;26;20475;-70
2024/04/14 04:36:18;;;;;;;11.60;11.30;;;;;;;;;;5516400;26;21014;-69
2024/04/14 04:38:45;;;;;;;10.50;10.30;;;;;;;;;;5507015;26;20917;-69
2024/04/14 04:41:13;;;;;;;10.90;10.70;;;;;;;;;;5511701;25;20464;-69
2024/04/14 04:43:40;;;;;;;10.57;10.37;;;;;;;;;;5510187;26;20492;-70
2024/04/14 04:46:09;;;;;;;10.77;10.57;;;;;;;;;;5515957;26;20520;-70
2024/04/14 04:48:38;;;;;;;10.40;10.20;;;;;;;;;;5520760;26;20471;-70
2024/04/14 04:51:07;;;;;;;10.50;10.30;;;;;;;;;;5502938;26;20897;-70
2024/04/14 04:53:36;;;;;;;11.23;10.93;;;;;;;;;;5507533;26;20452;-69
2024/04/14 04:56:04;;;;;;;11.40;11.10;;;;;;;;;;5497202;26;20592;-70
2024/04/14 04:58:32;;;;;;;11.30;11.00;;;;;;;;;;5502505;26;20929;-70
2024/04/14 05:01:00;;;;;;;11.03;10.73;;;;;;;;;;5506339;26;20585;-69
2024/04/14 05:03:27;;;;;;;10.50;10.30;;;;;;;;;;5513957;26;21137;-70
2024/04/14 05:05:59;;;;;;;10.20;10.00;;;;;;;;;;5504335;25;20566;-70
2024/04/14 05:08:26;;;;;;;10.97;10.77;;;;;;;;;;5517188;26;20479;-70
2024/04/14 05:10:59;;;;;;;10.40;10.20;;;;;;;;;;5504620;25;20517;-70
2024/04/14 05:13:25;;;;;;;11.50;11.20;;;;;;;;;;5508683;26;21081;-70
2024/04/14 05:15:56;;;;;;;10.80;10.60;;;;;;;;;;5513185;25;20477;-70
2024/04/14 05:18:22;;;;;;;10.40;10.20;;;;;;;;;;5509723;26;20469;-70
2024/04/14 05:20:54;;;;;;;10.00;9.80;;;;;;;;;;5516182;26;20476;-70
2024/04/14 05:23:20;;;;;;;10.50;10.30;;;;;;;;;;5500865;26;20463;-70
2024/04/14 05:25:51;;;;;;;10.80;10.60;;;;;;;;;;5520876;25;20471;-70
2024/04/14 05:28:20;;;;;;;10.73;10.53;;;;;;;;;;5507001;26;20525;-70
2024/04/14 05:30:50;;;;;;;10.50;10.30;;;;;;;;;;5508802;26;21785;-70
2024/04/14 05:33:16;;;;;;;10.23;10.03;;;;;;;;;;5498609;26;20528;-70
2024/04/14 05:35:54;;;;;;;9.80;9.60;;;;;;;;;;5500057;25;20466;-70
2024/04/14 05:38:21;;;;;;;10.30;10.10;;;;;;;;;;5508744;26;20485;-70
2024/04/14 05:40:50;;;;;;;10.23;10.03;;;;;;;;;;5518156;26;20813;-71
2024/04/14 05:43:16;;;;;;;10.70;10.50;;;;;;;;;;5506004;26;20538;-70
2024/04/14 05:45:48;;;;;;;10.60;10.40;;;;;;;;;;5515520;26;21077;-70
2024/04/14 05:48:14;;;;;;;9.80;9.60;;;;;;;;;;5518413;26;20822;-69
2024/04/14 05:50:44;;;;;;;10.37;10.17;;;;;;;;;;5513453;26;21014;-69
2024/04/14 05:53:12;;;;;;;10.07;9.87;;;;;;;;;;5500611;25;20530;-69
2024/04/14 05:55:41;;;;;;;10.47;10.27;;;;;;;;;;5509490;25;20534;-70
2024/04/14 05:58:08;;;;;;;10.60;10.40;;;;;;;;;;5503284;25;21097;-70
2024/04/14 06:00:38;;;;;;;10.67;10.47;;;;;;;;;;5512090;26;20478;-70
2024/04/14 06:03:07;;;;;;;10.70;10.50;;;;;;;;;;5502028;25;20543;-70
2024/04/14 06:05:36;;;;;;;10.00;9.80;;;;;;;;;;5508168;26;20812;-70
2024/04/14 06:08:03;;;;;;;10.00;9.80;;;;;;;;;;5508642;26;20512;-70
2024/04/14 06:10:32;;;;;;;10.33;10.13;;;;;;;;;;5496473;26;20472;-70
2024/04/14 06:12:58;;;;;;;10.20;10.00;;;;;;;;;;5507454;26;20474;-69
2024/04/14 06:15:29;;;;;;;10.90;10.67;;;;;;;;;;5508765;26;20589;-70
2024/04/14 06:17:55;;;;;;;11.33;11.03;;;;;;;;;;5492998;25;20883;-70
2024/04/14 06:20:27;;;;;;;10.80;10.60;;;;;;;;;;5513201;25;20539;-70
2024/04/14 06:22:54;;;;;;;11.20;10.90;;;;;;;;;;5507959;26;20486;-70
2024/04/14 06:25:24;;;;;;;11.57;11.27;;;;;;;;;;5517738;26;20464;-70
2024/04/14 06:27:50;;;;;;;11.20;10.90;;;;;;;;;;5503251;26;20469;-71
2024/04/14 06:30:20;;;;;;;11.47;11.17;;;;;;;;;;5511070;25;20460;-70
2024/04/14 06:32:46;;;;;;;11.13;10.83;;;;;;;;;;5509043;26;20461;-70
2024/04/14 06:35:15;;;;;;;11.37;11.07;;;;;;;;;;5510757;26;20480;-70
2024/04/14 06:37:45;;;;;;;11.53;11.23;;;;;;;;;;5507953;26;20476;-69
2024/04/14 06:40:15;;;;;;;11.63;11.33;;;;;;;;;;5507149;26;20530;-70
2024/04/14 06:42:42;;;;;;;12.00;11.70;;;;;;;;;;5503317;25;20492;-70
2024/04/14 06:45:12;;;;;;;11.83;11.53;;;;;;;;;;5504098;26;20529;-70
2024/04/14 06:47:39;;;;;;;11.20;10.90;;;;;;;;;;5512049;26;20473;-70
2024/04/14 06:50:10;;;;;;;10.70;10.50;;;;;;;;;;5515550;26;21148;-70
2024/04/14 06:52:37;;;;;;;10.70;10.50;;;;;;;;;;5501295;26;20531;-70
2024/04/14 06:55:11;;;;;;;10.67;10.47;;;;;;;;;;5518989;26;20465;-70
2024/04/14 06:57:39;;;;;;;10.37;10.17;;;;;;;;;;5496907;26;20526;-70
2024/04/14 07:00:08;;;;;;;10.40;10.20;;;;;;;;;;5512794;26;20468;-70
2024/04/14 07:02:35;;;;;;;10.50;10.30;;;;;;;;;;5508062;25;20472;-70
2024/04/14 07:05:05;;;;;;;10.37;10.17;;;;;;;;;;5513910;26;20477;-70
2024/04/14 07:07:31;;;;;;;11.13;10.83;;;;;;;;;;5516539;26;20865;-70
2024/04/14 07:10:00;;;;;;;10.77;10.57;;;;;;;;;;5506537;25;21010;-70
2024/04/14 07:12:30;;;;;;;10.53;10.33;;;;;;;;;;5506502;26;20488;-70
2024/04/14 07:14:59;;;;;;;10.23;10.03;;;;;;;;;;5499239;26;20634;-71
2024/04/14 07:17:25;;;;;;;10.70;10.50;;;;;;;;;;5509229;26;20532;-70
2024/04/14 07:19:54;;;;;;;10.50;10.30;;;;;;;;;;5513088;26;20536;-70
2024/04/14 07:22:21;;;;;;;10.33;10.13;;;;;;;;;;5512208;26;20476;-71
2024/04/14 07:24:50;;;;;;;10.33;10.13;;;;;;;;;;5503317;26;20468;-70
2024/04/14 07:27:17;;;;;;;10.10;9.90;;;;;;;;;;5509961;26;20846;-70
2024/04/14 07:29:49;;;;;;;10.73;10.53;;;;;;;;;;5491173;25;21129;-70
2024/04/14 07:32:15;;;;;;;10.33;10.13;;;;;;;;;;5512583;25;20461;-70
2024/04/14 07:34:44;;;;;;;10.43;10.23;;;;;;;;;;5505014;26;20809;-70
2024/04/14 07:37:13;;;;;;;11.07;10.87;;;;;;;;;;5498111;26;20477;-70
2024/04/14 07:39:43;;;;;;;10.60;10.40;;;;;;;;;;5506383;26;20463;-70
2024/04/14 07:42:10;;;;;;;10.30;10.10;;;;;;;;;;5502429;25;21090;-70
2024/04/14 07:44:40;;;;;;;10.27;10.07;;;;;;;;;;5502342;26;20531;-70
2024/04/14 07:47:09;;;;;;;9.90;9.70;;;;;;;;;;5509540;26;20468;-70
2024/04/14 07:49:41;;;;;;;10.43;10.23;;;;;;;;;;5516184;26;20517;-70
2024/04/14 07:52:08;;;;;;;10.60;10.40;;;;;;;;;;5516408;26;20475;-70
2024/04/14 07:54:37;;;;;;;10.60;10.40;;;;;;;;;;5515618;26;20474;-70
2024/04/14 07:57:05;;;;;;;10.43;10.23;;;;;;;;;;5504253;26;20587;-70
2024/04/14 07:59:35;;;;;;;10.30;10.10;;;;;;;;;;5502283;26;20585;-70
2024/04/14 08:02:01;;;;;;;10.30;10.10;;;;;;;;;;5522472;26;20597;-71
2024/04/14 08:04:33;;;;;;;10.93;10.73;;;;;;;;;;5509605;26;20536;-70
2024/04/14 08:06:59;;;;;;;11.13;10.90;;;;;;;;;;5499677;26;20536;-69
2024/04/14 08:09:27;;;;;;;11.47;11.17;;;;;;;;;;5515873;25;20471;-70
2024/04/14 08:11:53;;;;;;;11.27;10.97;;;;;;;;;;5517510;26;20525;-68
2024/04/14 08:14:22;;;;;;;11.40;11.10;;;;;;;;;;5496372;26;20502;-70
2024/04/14 08:16:49;;;;;;;11.27;10.97;;;;;;;;;;5515668;26;20525;-70
2024/04/14 08:19:18;;;;;;;11.77;11.47;;;;;;;;;;5497715;26;20474;-69
2024/04/14 08:21:47;;;;;;;11.40;11.10;;;;;;;;;;5502083;25;20465;-70
2024/04/14 08:24:16;;;;;;;11.73;11.43;;;;;;;;;;5504519;26;20552;-70
2024/04/14 08:26:43;;;;;;;11.40;11.10;;;;;;;;;;5514389;25;20468;-70
2024/04/14 08:29:12;;;;;;;11.70;11.40;;;;;;;;;;5520636;26;20531;-70
2024/04/14 08:31:39;;;;;;;11.80;11.50;;;;;;;;;;5501581;26;20610;-70
2024/04/14 08:34:08;;;;;;;12.40;12.10;;;;;;;;;;5505845;26;20902;-69
2024/04/14 08:36:34;;;;;;;12.00;11.70;;;;;;;;;;5516556;26;20521;-70
2024/04/14 08:39:06;;;;;;;12.23;11.93;;;;;;;;;;5501460;26;20562;-69
2024/04/14 08:41:33;;;;;;;11.77;11.47;;;;;;;;;;5518246;26;20522;-70
2024/04/14 08:44:03;;;;;;;11.73;11.43;;;;;;;;;;5508543;26;20855;-70
2024/04/14 08:46:31;;;;;;;11.90;11.60;;;;;;;;;;5502789;26;20556;-70
2024/04/14 08:49:00;;;;;;;11.60;11.30;;;;;;;;;;5512334;25;21031;-70
2024/04/14 08:51:28;;;;;;;11.63;11.33;;;;;;;;;;5506720;25;20928;-70
2024/04/14 08:53:59;;;;;;;12.17;11.87;;;;;;;;;;5508850;26;20476;-70
2024/04/14 08:56:28;;;;;;;11.13;10.90;;;;;;;;;;5508910;26;20530;-70
2024/04/14 08:59:00;;;;;;;11.33;11.03;;;;;;;;;;5499380;25;20605;-71
2024/04/14 09:01:27;;;;;;;12.10;11.80;;;;;;;;;;5507950;26;20910;-71
2024/04/14 09:03:57;;;;;;;12.27;11.97;;;;;;;;;;5517687;26;20475;-70
2024/04/14 09:06:23;;;;;;;12.27;11.97;;;;;;;;;;5518187;25;21022;-70
2024/04/14 09:08:52;;;;;;;12.53;12.23;;;;;;;;;;5510791;25;21290;-70
2024/04/14 09:11:19;;;;;;;12.40;12.10;;;;;;;;;;5503085;25;20467;-70
2024/04/14 09:13:51;;;;;;;12.50;12.20;;;;;;;;;;5496607;26;20560;-70
2024/04/14 09:16:18;;;;;;;12.60;12.30;;;;;;;;;;5516184;26;20474;-70
2024/04/14 09:18:47;;;;;;;13.10;12.70;;;;;;;;;;5513390;25;20477;-70
2024/04/14 09:21:14;;;;;;;12.23;11.93;;;;;;;;;;5515995;26;20523;-69
2024/04/14 09:23:43;;;;;;;12.77;12.40;;;;;;;;;;5512645;26;20532;-70
2024/04/14 09:26:10;;;;;;;12.93;12.53;;;;;;;;;;5496236;26;20480;-70
2024/04/14 09:28:39;;;;;;;12.80;12.50;;;;;;;;;;5506796;26;20477;-70
2024/04/14 09:31:09;;;;;;;12.20;11.90;;;;;;;;;;5509981;26;21447;-70
2024/04/14 09:33:38;;;;;;;12.20;11.90;;;;;;;;;;5518846;26;20469;-70
2024/04/14 09:36:06;;;;;;;12.40;12.10;;;;;;;;;;5517151;26;20814;-70
2024/04/14 09:38:35;;;;;;;12.60;12.30;;;;;;;;;;5503542;25;20837;-70
2024/04/14 09:41:02;;;;;;;12.70;12.40;;;;;;;;;;5502499;26;20478;-70
2024/04/14 09:43:33;;;;;;;12.70;12.40;;;;;;;;;;5511563;26;20575;-71
2024/04/14 09:46:00;;;;;;;12.20;11.90;;;;;;;;;;5506230;26;20865;-70
2024/04/14 09:48:32;;;;;;;13.07;12.70;;;;;;;;;;5515361;26;20487;-70
2024/04/14 09:51:00;;;;;;;12.37;12.07;;;;;;;;;;5496559;26;20465;-70
2024/04/14 09:53:31;;;;;;;12.20;11.90;;;;;;;;;;5508441;26;20474;-70
2024/04/14 09:55:58;;;;;;;12.20;11.90;;;;;;;;;;5503117;26;20475;-71
2024/04/14 09:58:27;;;;;;;12.50;12.20;;;;;;;;;;5520793;26;20468;-72
2024/04/14 10:00:54;;;;;;;12.80;12.40;;;;;;;;;;5514864;25;20516;-70
2024/04/14 10:03:24;;;;;;;12.33;12.03;;;;;;;;;;5501367;25;20881;-70
2024/04/14 10:05:54;;;;;;;12.33;12.03;;;;;;;;;;5511413;25;20479;-70
2024/04/14 10:08:23;;;;;;;12.47;12.17;;;;;;;;;;5484008;26;20468;-70
2024/04/14 10:10:52;;;;;;;12.50;12.20;;;;;;;;;;5510525;25;20467;-71
2024/04/14 10:13:21;;;;;;;12.80;12.40;;;;;;;;;;5500481;26;20458;-71
2024/04/14 10:15:56;;;;;;;13.10;12.70;;;;;;;;;;5503624;26;20528;-70
2024/04/14 10:18:27;;;;;;;12.57;12.27;;;;;;;;;;5520026;26;20466;-69
2024/04/14 10:21:02;;;;;;;12.23;11.93;;;;;;;;;;5496912;26;20513;-70
2024/04/14 10:23:31;;;;;;;11.80;11.50;;;;;;;;;;5497495;25;20562;-72
2024/04/14 10:25:58;;;;;;;12.50;12.20;;;;;;;;;;5509951;25;20992;-70
2024/04/14 10:28:27;;;;;;;13.00;12.60;;;;;;;;;;5508496;26;20820;-70
2024/04/14 10:31:00;;;;;;;12.10;11.80;;;;;;;;;;5503625;26;20473;-71
2024/04/14 10:33:28;;;;;;;12.07;11.77;;;;;;;;;;5501821;26;20489;-70
2024/04/14 10:36:04;;;;;;;12.10;11.80;;;;;;;;;;5502858;25;20486;-71
2024/04/14 10:38:33;;;;;;;12.40;12.10;;;;;;;;;;5504188;26;21201;-70
2024/04/14 10:41:00;;;;;;;12.70;12.40;;;;;;;;;;5493722;26;20477;-70
2024/04/14 10:43:29;;;;;;;12.70;12.40;;;;;;;;;;5513181;26;20462;-70
2024/04/14 10:45:59;;;;;;;12.63;12.33;;;;;;;;;;5493420;26;20499;-70
2024/04/14 10:48:28;;;;;;;12.20;11.90;;;;;;;;;;5499447;26;20482;-70
2024/04/14 10:50:55;;;;;;;12.33;12.03;;;;;;;;;;5502843;26;20645;-70
2024/04/14 10:53:27;;;;;;;12.40;12.10;;;;;;;;;;5518121;25;20517;-70
2024/04/14 10:55:53;;;;;;;12.70;12.40;;;;;;;;;;5504977;25;20994;-69
2024/04/14 10:58:22;;;;;;;12.23;11.93;;;;;;;;;;5520210;26;20509;-71
2024/04/14 11:00:48;;;;;;;12.20;11.90;;;;;;;;;;5506627;25;21070;-70
2024/04/14 11:03:18;;;;;;;12.20;11.90;;;;;;;;;;5517318;26;20468;-71
2024/04/14 11:05:45;;;;;;;12.90;12.60;;;;;;;;;;5509090;25;20870;-71
2024/04/14 11:08:14;;;;;;;13.27;12.87;;;;;;;;;;5518391;26;20533;-71
2024/04/14 11:10:44;;;;;;;13.10;12.70;;;;;;;;;;5511562;26;20523;-70
2024/04/14 11:13:16;;;;;;;12.43;12.13;;;;;;;;;;5507293;25;20597;-70
2024/04/14 11:15:43;;;;;;;13.00;12.60;;;;;;;;;;5503662;26;20664;-71
2024/04/14 11:18:13;;;;;;;13.07;12.67;;;;;;;;;;5499900;25;20483;-71
2024/04/14 11:20:47;;;;;;;13.10;12.70;;;;;;;;;;5503853;25;20962;-70
2024/04/14 11:23:15;;;;;;;12.97;12.57;;;;;;;;;;5522148;26;20787;-70
2024/04/14 11:25:45;;;;;;;12.60;12.30;;;;;;;;;;5510074;26;20483;-70
2024/04/14 11:28:14;;;;;;;11.83;11.53;;;;;;;;;;5506146;25;20875;-70
2024/04/14 11:30:42;;;;;;;12.30;12.00;;;;;;;;;;5497721;26;20553;-70
2024/04/14 11:33:11;;;;;;;12.73;12.43;;;;;;;;;;5515183;26;20467;-70
2024/04/14 11:35:37;;;;;;;13.10;12.70;;;;;;;;;;5497844;26;20462;-70
2024/04/14 11:38:07;;;;;;;12.50;12.20;;;;;;;;;;5522028;25;20713;-70
2024/04/14 11:40:33;;;;;;;12.30;12.00;;;;;;;;;;5502577;26;20485;-70
2024/04/14 11:43:05;;;;;;;12.37;12.07;;;;;;;;;;5503438;26;20595;-71
2024/04/14 11:45:31;;;;;;;12.30;12.00;;;;;;;;;;5515232;26;20526;-70
2024/04/14 11:48:01;;;;;;;12.90;12.50;;;;;;;;;;5508875;25;20460;-71
2024/04/14 11:50:28;;;;;;;12.30;12.00;;;;;;;;;;5516379;25;20809;-71
2024/04/14 11:52:57;;;;;;;12.60;12.27;;;;;;;;;;5490486;26;20585;-71
2024/04/14 11:55:23;;;;;;;12.37;12.07;;;;;;;;;;5497146;26;20477;-71
2024/04/14 11:57:53;;;;;;;12.97;12.57;;;;;;;;;;5496963;26;20458;-70
2024/04/14 12:00:22;;;;;;;13.73;13.33;;;;;;;;;;5511267;26;20523;-70
2024/04/14 12:02:51;;;;;;;13.03;12.63;;;;;;;;;;5512835;25;20513;-70
2024/04/14 12:05:18;;;;;;;13.47;13.07;;;;;;;;;;5514348;25;20509;-70
2024/04/14 12:07:47;;;;;;;13.40;13.00;;;;;;;;;;5489654;25;20627;-71
2024/04/14 12:10:14;;;;;;;12.70;12.30;;;;;;;;;;5509271;26;20475;-70
2024/04/14 12:12:43;;;;;;;12.90;12.50;;;;;;;;;;5510048;26;20977;-70
2024/04/14 12:15:11;;;;;;;13.40;13.00;;;;;;;;;;5513017;26;20467;-71
2024/04/14 12:17:43;;;;;;;13.60;13.20;;;;;;;;;;5520887;26;20866;-71
2024/04/14 12:20:09;;;;;;;13.40;13.00;;;;;;;;;;5489531;26;20464;-70
2024/04/14 12:22:39;;;;;;;14.03;13.63;;;;;;;;;;5507092;26;21087;-71
2024/04/14 12:25:06;;;;;;;13.60;13.20;;;;;;;;;;5504596;26;20880;-70
2024/04/14 12:27:35;;;;;;;13.20;12.80;;;;;;;;;;5502493;25;20474;-70
2024/04/14 12:30:02;;;;;;;13.00;12.60;;;;;;;;;;5518408;26;20461;-70
2024/04/14 12:32:31;;;;;;;13.30;12.90;;;;;;;;;;5521562;26;20895;-69
2024/04/14 12:35:00;;;;;;;13.07;12.67;;;;;;;;;;5502756;25;20474;-71
2024/04/14 12:37:29;;;;;;;13.23;12.83;;;;;;;;;;5519760;26;21452;-71
2024/04/14 12:39:56;;;;;;;13.50;13.10;;;;;;;;;;5503358;25;20525;-71
2024/04/14 12:42:24;;;;;;;13.40;13.00;;;;;;;;;;5504187;26;20521;-70
2024/04/14 12:44:51;;;;;;;13.20;12.80;;;;;;;;;;5502618;26;20541;-70
2024/04/14 12:47:20;;;;;;;13.73;13.33;;;;;;;;;;5516085;25;20457;-72
2024/04/14 12:49:46;;;;;;;13.10;12.70;;;;;;;;;;5500866;26;20542;-70
2024/04/14 12:52:17;;;;;;;12.90;12.50;;;;;;;;;;5503787;26;20914;-71
2024/04/14 12:54:43;;;;;;;13.73;13.33;;;;;;;;;;5504227;26;20534;-70
2024/04/14 12:57:12;;;;;;;13.70;13.30;;;;;;;;;;5521667;25;20468;-70
2024/04/14 12:59:41;;;;;;;13.53;13.13;;;;;;;;;;5519308;26;20530;-70
2024/04/14 13:02:08;;;;;;;13.60;13.20;;;;;;;;;;5506450;26;20531;-71
2024/04/14 13:04:37;;;;;;;13.60;13.20;;;;;;;;;;5507546;26;20769;-70
2024/04/14 13:07:05;;;;;;;13.00;12.60;;;;;;;;;;5513533;25;20462;-70
2024/04/14 13:09:37;;;;;;;12.93;12.53;;;;;;;;;;5513218;25;20463;-71
2024/04/14 13:12:04;;;;;;;13.33;12.93;;;;;;;;;;5509250;26;20483;-70
2024/04/14 13:14:35;;;;;;;13.33;12.93;;;;;;;;;;5503446;26;20477;-70
2024/04/14 13:17:03;;;;;;;13.80;13.40;;;;;;;;;;5513531;26;20559;-71
2024/04/14 13:19:34;;;;;;;13.47;13.07;;;;;;;;;;5506539;25;20857;-71
2024/04/14 13:22:00;;;;;;;13.10;12.70;;;;;;;;;;5515122;26;20584;-70
2024/04/14 13:24:30;;;;;;;12.80;12.40;;;;;;;;;;5517818;26;20465;-70
2024/04/14 13:26:59;;;;;;;13.17;12.77;;;;;;;;;;5506472;26;20473;-71
2024/04/14 13:29:28;;;;;;;12.90;12.50;;;;;;;;;;5513503;25;20481;-70
2024/04/14 13:31:54;;;;;;;13.00;12.60;;;;;;;;;;5495383;26;20470;-71
2024/04/14 13:34:23;;;;;;;12.60;12.20;;;;;;;;;;5512418;26;20837;-70
2024/04/14 13:36:49;;;;;;;13.20;12.80;;;;;;;;;;5512633;25;20546;-71
2024/04/14 13:39:18;;;;;;;13.30;12.90;;;;;;;;;;5507449;25;20461;-70
2024/04/14 13:41:45;;;;;;;13.40;13.00;;;;;;;;;;5510898;26;20551;-70
2024/04/14 13:44:16;;;;;;;13.77;13.37;;;;;;;;;;5509591;25;20931;-70
2024/04/14 13:46:43;;;;;;;12.47;12.17;;;;;;;;;;5496629;25;20822;-70
2024/04/14 13:49:12;;;;;;;12.40;12.10;;;;;;;;;;5504820;25;20470;-71
2024/04/14 13:51:38;;;;;;;13.27;12.87;;;;;;;;;;5521541;25;20599;-69
2024/04/14 13:54:07;;;;;;;12.90;12.50;;;;;;;;;;5502124;26;20461;-70
2024/04/14 13:56:33;;;;;;;11.90;11.60;;;;;;;;;;5515043;26;20573;-70
2024/04/14 13:59:02;;;;;;;12.60;12.30;;;;;;;;;;5495842;25;20476;-70
2024/04/14 14:01:32;;;;;;;12.30;12.00;;;;;;;;;;5509857;26;20453;-71
2024/04/14 14:04:01;;;;;;;12.27;11.97;;;;;;;;;;5511518;25;20534;-70
2024/04/14 14:06:27;;;;;;;12.60;12.30;;;;;;;;;;5506058;26;20521;-70
2024/04/14 14:08:57;;;;;;;12.77;12.47;;;;;;;;;;5520043;26;20539;-70
2024/04/14 14:11:23;;;;;;;12.70;12.30;;;;;;;;;;5508513;26;20472;-70
2024/04/14 14:13:52;;;;;;;12.50;12.20;;;;;;;;;;5506450;25;20466;-71
2024/04/14 14:16:18;;;;;;;12.70;12.40;;;;;;;;;;5499616;25;20587;-70
2024/04/14 14:18:50;;;;;;;12.90;12.60;;;;;;;;;;5506047;26;20506;-70
2024/04/14 14:21:17;;;;;;;12.63;12.33;;;;;;;;;;5503945;25;20498;-69
2024/04/14 14:23:46;;;;;;;12.40;12.10;;;;;;;;;;5498689;25;20955;-70
2024/04/14 14:26:12;;;;;;;12.70;12.40;;;;;;;;;;5513751;26;20463;-71